Time;durP1;ratioP1;P1;durP2;ratioP2;P2;SDS_P1;SDS_P2;PMS_P1;PMS_P2;Temp;Humidity;BMP_temperature;BMP_pressure;BME280_temperature;BME280_humidity;BME280_pressure;Samples;Min_cycle;Max_cycle;Signal;HPM_P1;HPM_P2
2022/02/20 00:01:55;;;;;;;;;;;;;;;29.34;67.31;101021.91;4979049;28;65359;-40
2022/02/20 00:04:25;;;;;;;;;;;;;;;29.36;66.74;101019.81;4977317;28;68075;-41
2022/02/20 00:06:54;;;;;;;;;;;;;;;29.43;67.00;101033.34;4980238;28;66104;-41
2022/02/20 00:09:24;;;;;;;;;;;;;;;29.46;66.88;101035.63;4980042;28;70706;-41
2022/02/20 00:11:54;;;;;;;;;;;;;;;29.47;67.32;101042.69;4978439;28;66562;-41
2022/02/20 00:14:24;;;;;;;;;;;;;;;29.51;67.20;101050.19;4978740;28;69258;-41
2022/02/20 00:16:54;;;;;;;;;;;;;;;29.53;67.00;101058.09;4992702;27;65365;-42
2022/02/20 00:19:24;;;;;;;;;;;;;;;29.57;66.39;101062.06;4955012;28;69689;-41
2022/02/20 00:21:54;;;;;;;;;;;;;;;29.56;67.18;101063.06;4985264;28;66715;-41
2022/02/20 00:24:23;;;;;;;;;;;;;;;29.58;66.91;101061.81;4980397;28;70244;-41
2022/02/20 00:26:53;;;;;;;;;;;;;;;29.60;67.03;101064.34;4984418;28;66097;-39
2022/02/20 00:29:24;;;;;;;;;;;;;;;29.63;66.80;101069.34;4978329;28;70334;-39
2022/02/20 00:31:54;;;;;;;;;;;;;;;29.67;67.22;101081.44;4982601;27;67090;-40
2022/02/20 00:34:23;;;;;;;;;;;;;;;29.68;67.38;101071.44;4982922;27;70530;-39
2022/02/20 00:36:53;;;;;;;;;;;;;;;29.69;67.27;101073.94;4990631;28;66083;-40
2022/02/20 00:39:25;;;;;;;;;;;;;;;29.68;67.82;101077.69;4977792;28;69796;-41
2022/02/20 00:41:55;;;;;;;;;;;;;;;29.71;67.69;101082.66;4977104;28;67056;-40
2022/02/20 00:44:25;;;;;;;;;;;;;;;29.73;67.90;101091.41;4975259;28;69306;-40
2022/02/20 00:46:55;;;;;;;;;;;;;;;29.76;67.84;101096.41;4956643;28;66208;-39
2022/02/20 00:49:25;;;;;;;;;;;;;;;29.79;68.17;101101.41;4979737;27;71193;-39
2022/02/20 00:51:55;;;;;;;;;;;;;;;29.79;68.34;101101.41;4977131;28;66612;-39
2022/02/20 00:54:25;;;;;;;;;;;;;;;29.81;68.16;101114.69;4976856;28;69231;-40
2022/02/20 00:56:54;;;;;;;;;;;;;;;29.83;67.76;101109.91;4957457;28;65714;-40
2022/02/20 00:59:24;;;;;;;;;;;;;;;29.82;67.46;101111.78;4975706;28;70278;-40
2022/02/20 01:01:54;;;;;;;;;;;;;;;29.86;67.70;101116.78;4975906;28;66604;-40
2022/02/20 01:04:26;;;;;;;;;;;;;;;29.87;67.86;101123.88;4966808;28;70688;-39
2022/02/20 01:06:56;;;;;;;;;;;;;;;29.88;67.31;101130.94;4976596;28;66048;-39
2022/02/20 01:09:26;;;;;;;;;;;;;;;29.88;68.09;101133.66;4975964;28;69622;-40
2022/02/20 01:11:56;;;;;;;;;;;;;;;29.91;67.53;101135.94;4973568;28;66819;-40
2022/02/20 01:14:25;;;;;;;;;;;;;;;29.90;67.81;101129.69;4978625;28;70360;-40
2022/02/20 01:16:57;;;;;;;;;;;;;;;29.92;67.34;101138.44;4956460;28;66479;-39
2022/02/20 01:19:27;;;;;;;;;;;;;;;29.94;68.26;101140.91;4975083;28;70578;-39
2022/02/20 01:21:57;;;;;;;;;;;;;;;29.86;67.43;101130.31;4988686;28;65977;-38
2022/02/20 01:24:27;;;;;;;;;;;;;;;29.96;68.05;101144.25;4991580;27;69809;-39
2022/02/20 01:26:56;;;;;;;;;;;;;;;29.97;68.55;101141.31;4991378;27;66600;-39
2022/02/20 01:29:26;;;;;;;;;;;;;;;30.00;68.57;101145.50;4994936;27;70687;-38
2022/02/20 01:31:56;;;;;;;;;;;;;;;30.03;68.27;101145.94;4996434;28;66121;-39
2022/02/20 01:34:26;;;;;;;;;;;;;;;30.04;68.78;101141.34;4976257;28;69790;-40
2022/02/20 01:36:56;;;;;;;;;;;;;;;30.05;68.32;101138.41;4978661;28;65121;-39
2022/02/20 01:39:26;;;;;;;;;;;;;;;30.08;68.64;101150.69;4977320;28;69913;-40
2022/02/20 01:42:02;;;;;;;;;;;;;;;30.10;68.54;101151.31;4977538;28;66613;-40
2022/02/20 01:44:32;;;;;;;;;;;;;;;30.09;68.57;101160.50;4978362;28;70150;-40
2022/02/20 01:47:04;;;;;;;;;;;;;;;30.07;68.07;101146.34;4970823;28;66424;-37
2022/02/20 01:49:38;;;;;;;;;;;;;;;30.04;68.24;101157.56;4971533;28;70621;-38
2022/02/20 01:52:08;;;;;;;;;;;;;;;29.99;68.29;101160.88;4978084;28;65914;-38
2022/02/20 01:54:38;;;;;;;;;;;;;;;29.96;68.30;101158.59;4959571;28;69684;-39
2022/02/20 01:57:09;;;;;;;;;;;;;;;29.95;68.68;101156.09;4963017;28;66014;-39
2022/02/20 02:00:03;;;;;;;;;;;;;;;29.95;68.16;101164.22;4956561;28;70080;-39
2022/02/20 02:02:43;;;;;;;;;;;;;;;29.95;68.61;101165.06;4977484;28;65790;-41
2022/02/20 02:05:36;;;;;;;;;;;;;;;29.91;68.78;101160.28;4975324;28;69415;-41
2022/02/20 02:08:06;;;;;;;;;;;;;;;29.94;68.74;101170.66;4974263;28;65644;-41
2022/02/20 02:10:46;;;;;;;;;;;;;;;29.95;68.68;101164.22;4956254;28;69284;-46
2022/02/20 02:13:34;;;;;;;;;;;;;;;29.96;68.62;101168.59;4990753;27;65410;-41
2022/02/20 02:16:43;;;;;;;;;;;;;;;30.02;67.88;101175.88;4933157;28;70128;-40
2022/02/20 02:19:31;;;;;;;;;;;;;;;30.04;67.53;101165.69;4945185;28;66662;-40
2022/02/20 02:22:21;;;;;;;;;;;;;;;30.05;67.98;101175.47;4953319;28;69827;-42
2022/02/20 02:25:10;;;;;;;;;;;;;;;30.10;67.44;101172.16;4982525;28;65304;-41
2022/02/20 02:28:12;;;;;;;;;;;;;;;30.12;67.72;101170.91;4956494;28;69236;-41
2022/02/20 02:30:55;;;;;;;;;;;;;;;30.13;67.73;101161.72;4974377;28;66795;-41
2022/02/20 02:33:26;;;;;;;;;;;;;;;30.14;67.13;101168.78;4960402;28;69845;-40
2022/02/20 02:35:56;;;;;;;;;;;;;;;30.14;67.69;101162.56;4990606;28;66488;-41
2022/02/20 02:38:27;;;;;;;;;;;;;;;30.14;67.37;101160.69;4963764;28;69517;-40
2022/02/20 02:41:09;;;;;;;;;;;;;;;30.18;67.16;101164.66;4976206;28;66533;-41
2022/02/20 02:43:41;;;;;;;;;;;;;;;30.20;67.70;101162.56;4968390;28;69264;-40
2022/02/20 02:46:11;;;;;;;;;;;;;;;30.22;67.38;101160.50;4984746;28;65971;-40
2022/02/20 02:48:46;;;;;;;;;;;;;;;30.28;67.73;101165.09;4981968;28;70244;-39
2022/02/20 02:51:18;;;;;;;;;;;;;;;30.33;67.63;101160.91;4965581;28;65142;-40
2022/02/20 02:53:48;;;;;;;;;;;;;;;30.36;66.61;101165.91;4963322;28;70282;-40
2022/02/20 02:56:18;;;;;;;;;;;;;;;30.38;66.80;101163.81;4977079;28;66776;-41
2022/02/20 02:58:48;;;;;;;;;;;;;;;30.43;66.62;101166.75;4959413;28;70240;-40
2022/02/20 03:01:18;;;;;;;;;;;;;;;30.45;66.62;101159.22;4976359;28;65993;-40
2022/02/20 03:03:49;;;;;;;;;;;;;;;30.47;65.61;101171.50;4947210;28;69964;-40
2022/02/20 03:06:23;;;;;;;;;;;;;;;30.50;66.02;101162.13;4975459;28;66624;-40
2022/02/20 03:09:08;;;;;;;;;;;;;;;30.51;65.99;101158.41;4963306;28;70661;-41
2022/02/20 03:11:40;;;;;;;;;;;;;;;30.55;66.17;101154.22;4975688;28;66348;-40
2022/02/20 03:14:16;;;;;;;;;;;;;;;30.56;65.94;101155.88;4964375;28;70753;-40
2022/02/20 03:16:46;;;;;;;;;;;;;;;30.59;66.12;101155.47;4977684;28;66727;-41
2022/02/20 03:19:16;;;;;;;;;;;;;;;30.62;65.91;101154.19;4986959;28;69744;-45
2022/02/20 03:21:46;;;;;;;;;;;;;;;30.67;66.19;101152.53;4960954;28;66483;-40
2022/02/20 03:24:20;;;;;;;;;;;;;;;30.68;65.51;101146.06;4975866;28;69391;-47
2022/02/20 03:26:51;;;;;;;;;;;;;;;30.70;65.73;101143.97;4960349;28;66335;-40
2022/02/20 03:29:28;;;;;;;;;;;;;;;30.75;65.39;101140.63;4985176;28;70050;-40
2022/02/20 03:31:59;;;;;;;;;;;;;;;30.81;65.97;101136.25;4960928;28;66487;-40
2022/02/20 03:34:29;;;;;;;;;;;;;;;30.82;65.80;101124.38;4962872;28;69913;-39
2022/02/20 03:37:02;;;;;;;;;;;;;;;30.87;65.91;101121.84;4978195;28;66190;-41
2022/02/20 03:39:36;;;;;;;;;;;;;;;30.90;65.33;101116.03;4961576;28;70483;-41
2022/02/20 03:42:08;;;;;;;;;;;;;;;30.94;64.94;101107.25;4979170;28;66500;-41
2022/02/20 03:44:57;;;;;;;;;;;;;;;30.99;65.05;101108.47;4981394;28;70464;-42
2022/02/20 03:47:29;;;;;;;;;;;;;;;31.00;65.23;101097.41;4976791;28;66332;-40
2022/02/20 03:50:01;;;;;;;;;;;;;;;31.02;65.02;101089.91;4981080;28;69809;-41
2022/02/20 03:52:31;;;;;;;;;;;;;;;31.06;65.66;101085.69;4977457;28;66125;-41
2022/02/20 03:55:04;;;;;;;;;;;;;;;31.10;65.95;101081.53;4978384;28;69725;-42
2022/02/20 03:57:39;;;;;;;;;;;;;;;31.13;65.11;101078.38;4974329;28;66004;-41
2022/02/20 04:00:10;;;;;;;;;;;;;;;31.22;65.17;101083.53;4978065;28;70432;-41
2022/02/20 04:02:43;;;;;;;;;;;;;;;31.25;64.97;101072.25;4980572;28;66765;-42
2022/02/20 04:05:18;;;;;;;;;;;;;;;31.28;64.68;101069.94;4976917;28;70290;-40
2022/02/20 04:07:49;;;;;;;;;;;;;;;31.31;64.58;101065.97;4979044;28;66186;-42
2022/02/20 04:10:22;;;;;;;;;;;;;;;31.34;64.53;101054.69;4976332;28;69822;-41
2022/02/20 04:12:54;;;;;;;;;;;;;;;31.39;64.68;101057.59;4974940;28;65660;-41
2022/02/20 04:15:27;;;;;;;;;;;;;;;31.44;64.14;101055.06;4973948;28;70480;-41
2022/02/20 04:18:06;;;;;;;;;;;;;;;31.46;64.50;101047.56;4956418;28;66861;-41
2022/02/20 04:20:36;;;;;;;;;;;;;;;31.47;64.06;101054.63;4973213;28;70644;-41
2022/02/20 04:23:05;;;;;;;;;;;;;;;31.52;63.74;101057.50;4969307;28;66107;-41
2022/02/20 04:25:37;;;;;;;;;;;;;;;31.51;64.27;101047.72;4976692;28;70074;-41
2022/02/20 04:28:08;;;;;;;;;;;;;;;31.52;63.42;101046.66;4958782;28;65865;-42
2022/02/20 04:30:39;;;;;;;;;;;;;;;31.53;62.59;101042.88;4975664;28;70405;-41
2022/02/20 04:33:12;;;;;;;;;;;;;;;31.59;62.96;101036.59;4975963;28;66860;-41
2022/02/20 04:35:42;;;;;;;;;;;;;;;31.60;63.12;101027.41;4977710;28;70233;-44
2022/02/20 04:38:12;;;;;;;;;;;;;;;31.64;62.54;101032.38;4974736;28;65768;-40
2022/02/20 04:40:42;;;;;;;;;;;;;;;31.63;62.82;101014.47;4977491;28;69295;-41
2022/02/20 04:43:16;;;;;;;;;;;;;;;31.64;62.42;101016.13;4978672;28;66896;-40
2022/02/20 04:45:50;;;;;;;;;;;;;;;31.67;62.10;101015.66;4961366;28;70107;-41
2022/02/20 04:48:22;;;;;;;;;;;;;;;31.67;61.80;101012.97;4966726;28;66118;-41
2022/02/20 04:50:53;;;;;;;;;;;;;;;31.69;61.97;101005.44;4962533;28;69958;-46
2022/02/20 04:53:23;;;;;;;;;;;;;;;31.70;62.17;100999.78;4969941;28;66204;-40
2022/02/20 04:55:57;;;;;;;;;;;;;;;31.76;61.47;100998.91;4973526;28;69189;-43
2022/02/20 04:58:38;;;;;;;;;;;;;;;31.79;61.72;101003.06;4964338;28;66027;-41
2022/02/20 05:01:18;;;;;;;;;;;;;;;31.78;61.87;100985.09;4953233;28;69161;-41
2022/02/20 05:04:26;;;;;;;;;;;;;;;31.80;61.32;100974.88;4975374;28;65629;-40
2022/02/20 05:06:57;;;;;;;;;;;;;;;31.83;61.51;100983.38;4958657;28;70105;-40
2022/02/20 05:09:36;;;;;;;;;;;;;;;31.82;61.95;100973.59;4976014;28;66153;-39
2022/02/20 05:12:06;;;;;;;;;;;;;;;31.89;62.34;100969.97;4970917;28;69813;-41
2022/02/20 05:14:36;;;;;;;;;;;;;;;31.89;62.80;100962.66;4976487;28;66433;-40
2022/02/20 05:17:23;;;;;;;;;;;;;;;31.88;63.59;100963.72;4973725;28;70820;-41
2022/02/20 05:19:58;;;;;;;;;;;;;;;31.75;61.18;100958.44;4975439;28;66902;-41
2022/02/20 05:22:28;;;;;;;;;;;;;;;31.59;59.51;100949.84;4965950;28;69365;-42
2022/02/20 05:25:03;;;;;;;;;;;;;;;31.41;58.67;100947.09;4975994;28;66567;-41
2022/02/20 05:27:34;;;;;;;;;;;;;;;31.25;56.22;100943.00;4954684;28;70742;-40
2022/02/20 05:30:06;;;;;;;;;;;;;;;31.13;55.58;100934.78;4950674;28;66023;-41
2022/02/20 05:32:38;;;;;;;;;;;;;;;31.02;54.34;100932.78;4971751;28;70067;-48
2022/02/20 05:35:15;;;;;;;;;;;;;;;30.93;53.30;100928.69;4960996;28;65595;-41
2022/02/20 05:37:46;;;;;;;;;;;;;;;30.86;51.99;100927.91;4975373;28;69393;-41
2022/02/20 05:40:20;;;;;;;;;;;;;;;30.79;51.46;100927.09;4955171;28;64646;-40
2022/02/20 05:42:59;;;;;;;;;;;;;;;30.72;50.84;100914.41;4979270;28;70649;-40
2022/02/20 05:45:32;;;;;;;;;;;;;;;30.69;50.58;100911.31;4972944;28;65628;-41
2022/02/20 05:48:10;;;;;;;;;;;;;;;30.62;49.32;100911.38;4973650;28;70386;-39
2022/02/20 05:50:58;;;;;;;;;;;;;;;30.55;49.30;100909.75;4969063;28;66355;-41
2022/02/20 05:53:32;;;;;;;;;;;;;;;30.53;48.09;100899.13;4959283;28;70156;-41
2022/02/20 05:56:02;;;;;;;;;;;;;;;30.46;47.62;100895.63;4968386;28;67072;-41
2022/02/20 05:58:52;;;;;;;;;;;;;;;30.41;46.64;100898.97;4967302;27;69692;-41
2022/02/20 06:01:22;;;;;;;;;;;;;;;30.40;46.92;100888.38;4975019;28;66913;-41
2022/02/20 06:03:59;;;;;;;;;;;;;;;30.35;45.84;100882.78;4947808;28;70496;-40
2022/02/20 06:07:03;;;;;;;;;;;;;;;30.32;45.17;100861.59;4979850;28;67256;-41
2022/02/20 06:09:47;;;;;;;;;;;;;;;30.30;45.76;100869.06;4976648;28;69250;-41
2022/02/20 06:12:25;;;;;;;;;;;;;;;30.28;45.00;100864.72;4975469;28;66039;-42
2022/02/20 06:15:30;;;;;;;;;;;;;;;30.26;44.36;100858.69;4959635;28;69762;-41
2022/02/20 06:18:36;;;;;;;;;;;;;;;30.24;43.77;100855.38;5023452;28;65992;-42
2022/02/20 06:21:35;;;;;;;;;;;;;;;30.23;44.28;100842.06;4963175;28;69757;-42
2022/02/20 06:24:29;;;;;;;;;;;;;;;30.22;44.13;100841.22;4947466;28;66320;-40
2022/02/20 06:27:12;;;;;;;;;;;;;;;30.23;43.39;100832.06;4974711;28;70531;-41
2022/02/20 06:29:55;;;;;;;;;;;;;;;30.23;43.73;100826.66;4957346;28;66177;-41
2022/02/20 06:32:26;;;;;;;;;;;;;;;30.25;43.98;100819.13;4948810;28;69319;-41
2022/02/20 06:34:56;;;;;;;;;;;;;;;30.22;43.86;100818.75;4968632;28;66133;-41
2022/02/20 06:37:28;;;;;;;;;;;;;;;30.22;43.70;100819.56;4963438;28;69987;-40
2022/02/20 06:39:57;;;;;;;;;;;;;;;30.23;43.44;100815.84;4977603;28;66126;-41
2022/02/20 06:42:27;;;;;;;;;;;;;;;30.21;43.06;100801.66;4969612;28;70167;-39
2022/02/20 06:45:00;;;;;;;;;;;;;;;30.19;43.53;100795.63;4975478;28;65806;-40
2022/02/20 06:47:42;;;;;;;;;;;;;;;30.16;42.79;100787.94;4960986;28;69861;-41
2022/02/20 06:50:25;;;;;;;;;;;;;;;30.16;42.55;100787.13;4983791;27;66205;-42
2022/02/20 06:53:11;;;;;;;;;;;;;;;30.12;42.67;100775.91;4970800;28;69451;-42
2022/02/20 06:56:06;;;;;;;;;;;;;;;30.12;42.09;100780.50;4990607;27;65496;-42
2022/02/20 06:58:36;;;;;;;;;;;;;;;30.17;42.28;100772.53;4978167;27;70476;-41
2022/02/20 07:01:06;;;;;;;;;;;;;;;30.14;42.11;100762.16;4987074;28;65707;-41
2022/02/20 07:03:37;;;;;;;;;;;;;;;30.16;43.23;100755.47;4974694;28;70415;-41
2022/02/20 07:06:09;;;;;;;;;;;;;;;30.19;44.54;100755.03;4987729;27;65553;-41
2022/02/20 07:08:39;;;;;;;;;;;;;;;30.20;43.93;100751.31;4968687;28;69948;-40
2022/02/20 07:11:08;;;;;;;;;;;;;;;30.22;43.76;100743.81;4981540;28;65451;-40
2022/02/20 07:13:38;;;;;;;;;;;;;;;30.27;44.51;100740.47;4977587;28;70502;-40
2022/02/20 07:16:08;;;;;;;;;;;;;;;30.28;43.79;100732.13;4976798;28;66610;-40
2022/02/20 07:18:38;;;;;;;;;;;;;;;30.33;43.57;100734.16;4959566;28;69442;-40
2022/02/20 07:21:08;;;;;;;;;;;;;;;30.32;44.71;100720.88;4971581;27;64275;-41
2022/02/20 07:23:38;;;;;;;;;;;;;;;30.35;44.62;100715.00;4957021;28;69936;-39
2022/02/20 07:26:08;;;;;;;;;;;;;;;30.36;44.06;100711.25;4973418;28;66774;-41
2022/02/20 07:28:37;;;;;;;;;;;;;;;30.44;47.41;100716.38;4978569;28;70523;-40
2022/02/20 07:31:07;;;;;;;;;;;;;;;30.62;48.15;100708.31;4978622;28;66176;-40
2022/02/20 07:33:38;;;;;;;;;;;;;;;30.87;49.33;100715.56;4979182;28;70746;-41
2022/02/20 07:36:10;;;;;;;;;;;;;;;31.08;49.86;100712.44;4976399;28;67495;-40
2022/02/20 07:38:40;;;;;;;;;;;;;;;31.28;51.12;100714.91;4976773;28;69789;-40
2022/02/20 07:41:10;;;;;;;;;;;;;;;31.47;51.67;100707.63;4963031;28;65652;-40
2022/02/20 07:43:41;;;;;;;;;;;;;;;31.63;51.67;100705.34;4977378;28;69538;-41
2022/02/20 07:46:11;;;;;;;;;;;;;;;31.76;51.84;100705.13;4979154;28;65462;-41
2022/02/20 07:48:41;;;;;;;;;;;;;;;31.87;53.15;100704.34;4962741;28;70241;-41
2022/02/20 07:51:12;;;;;;;;;;;;;;;31.98;53.02;100700.03;4973739;28;65601;-42
2022/02/20 07:53:42;;;;;;;;;;;;;;;32.09;53.02;100698.41;4996434;27;70530;-41
2022/02/20 07:56:12;;;;;;;;;;;;;;;32.17;53.10;100698.09;4996398;27;67432;-41
2022/02/20 07:58:43;;;;;;;;;;;;;;;32.26;53.46;100710.25;4996204;27;70785;-41
2022/02/20 08:01:14;;;;;;;;;;;;;;;32.32;53.66;100712.06;4995968;27;66382;-41
2022/02/20 08:03:45;;;;;;;;;;;;;;;32.39;53.24;100704.59;4994564;27;70358;-41
2022/02/20 08:06:15;;;;;;;;;;;;;;;32.45;53.78;100698.22;4996180;27;67133;-41
2022/02/20 08:08:45;;;;;;;;;;;;;;;32.54;53.77;100695.19;4993782;27;69783;-41
2022/02/20 08:11:15;;;;;;;;;;;;;;;32.59;53.39;100698.03;4996682;27;66479;-40
2022/02/20 08:13:45;;;;;;;;;;;;;;;32.65;54.15;100691.66;4995170;28;70565;-41
2022/02/20 08:16:15;;;;;;;;;;;;;;;32.69;53.88;100688.22;4979840;28;66371;-42
2022/02/20 08:18:45;;;;;;;;;;;;;;;32.73;54.02;100677.72;4993016;27;69350;-41
2022/02/20 08:21:15;;;;;;;;;;;;;;;32.80;53.54;100678.41;4962173;28;66009;-41
2022/02/20 08:23:46;;;;;;;;;;;;;;;32.85;53.68;100675.81;4986163;27;70625;-42
2022/02/20 08:26:17;;;;;;;;;;;;;;;32.89;53.86;100676.97;4992165;27;66703;-47
2022/02/20 08:28:48;;;;;;;;;;;;;;;32.92;53.75;100673.78;4993529;27;70197;-41
2022/02/20 08:31:18;;;;;;;;;;;;;;;32.96;53.95;100676.00;4991571;27;66641;-41
2022/02/20 08:33:51;;;;;;;;;;;;;;;33.00;54.03;100674.53;4993127;27;69865;-40
2022/02/20 08:36:21;;;;;;;;;;;;;;;33.01;54.68;100668.00;4976182;28;66058;-40
2022/02/20 08:38:51;;;;;;;;;;;;;;;33.00;56.36;100677.25;4968231;28;70473;-43
2022/02/20 08:41:21;;;;;;;;;;;;;;;33.04;57.16;100667.53;4963648;28;65799;-44
2022/02/20 08:43:51;;;;;;;;;;;;;;;33.05;57.70;100670.03;4986294;28;69430;-42
2022/02/20 08:46:21;;;;;;;;;;;;;;;32.97;57.60;100666.81;4964995;28;65389;-43
2022/02/20 08:48:50;;;;;;;;;;;;;;;32.90;58.02;100670.50;4977850;28;70260;-42
2022/02/20 08:51:20;;;;;;;;;;;;;;;32.89;58.46;100666.09;4979627;28;66776;-46
2022/02/20 08:53:50;;;;;;;;;;;;;;;32.87;58.22;100672.84;4976763;28;69406;-42
2022/02/20 08:56:22;;;;;;;;;;;;;;;32.84;58.18;100668.72;4978378;28;66833;-43
2022/02/20 08:58:55;;;;;;;;;;;;;;;32.85;59.29;100670.38;4978970;28;70344;-44
2022/02/20 09:01:27;;;;;;;;;;;;;;;32.81;59.05;100663.75;4964814;28;66113;-41
2022/02/20 09:04:02;;;;;;;;;;;;;;;32.83;58.89;100660.81;4986730;27;69790;-40
2022/02/20 09:06:33;;;;;;;;;;;;;;;32.81;59.20;100661.03;4958350;28;66240;-42
2022/02/20 09:09:03;;;;;;;;;;;;;;;32.88;58.88;100652.78;4971089;28;69243;-41
2022/02/20 09:11:33;;;;;;;;;;;;;;;32.98;58.57;100660.31;4971092;28;66362;-42
2022/02/20 09:14:04;;;;;;;;;;;;;;;33.04;56.56;100656.66;4976193;28;69316;-42
2022/02/20 09:16:33;;;;;;;;;;;;;;;33.11;57.25;100660.91;4965153;28;65564;-47
2022/02/20 09:19:06;;;;;;;;;;;;;;;33.16;56.77;100665.63;4958051;28;68999;-42
2022/02/20 09:21:36;;;;;;;;;;;;;;;33.19;56.05;100665.13;4970303;28;66368;-40
2022/02/20 09:24:06;;;;;;;;;;;;;;;33.23;55.06;100666.28;4977467;27;69722;-41
2022/02/20 09:26:36;;;;;;;;;;;;;;;33.28;54.96;100668.28;4977576;28;65673;-45
2022/02/20 09:29:07;;;;;;;;;;;;;;;33.27;54.77;100667.47;4976538;28;69247;-42
2022/02/20 09:31:37;;;;;;;;;;;;;;;33.28;54.40;100658.25;4977372;28;67249;-41
2022/02/20 09:34:06;;;;;;;;;;;;;;;33.33;54.57;100669.22;4961627;28;70041;-42
2022/02/20 09:36:36;;;;;;;;;;;;;;;33.36;54.32;100665.19;4977380;28;65326;-43
2022/02/20 09:39:06;;;;;;;;;;;;;;;33.36;54.55;100666.00;4957744;28;70092;-41
2022/02/20 09:41:36;;;;;;;;;;;;;;;33.42;54.06;100663.41;4981535;28;66727;-42
2022/02/20 09:44:06;;;;;;;;;;;;;;;33.47;53.95;100666.22;4975322;28;70533;-42
2022/02/20 09:46:41;;;;;;;;;;;;;;;33.46;53.92;100650.94;4975589;28;65407;-42
2022/02/20 09:49:11;;;;;;;;;;;;;;;33.48;54.36;100656.97;4974771;28;69245;-42
2022/02/20 09:51:41;;;;;;;;;;;;;;;33.50;53.42;100658.38;4978176;28;66957;-44
2022/02/20 09:54:11;;;;;;;;;;;;;;;33.52;53.30;100658.16;4978545;28;70928;-43
2022/02/20 09:56:40;;;;;;;;;;;;;;;33.47;53.61;100655.34;4978454;28;66519;-42
2022/02/20 09:59:10;;;;;;;;;;;;;;;33.48;53.68;100662.41;4976110;28;70200;-41
2022/02/20 10:01:58;;;;;;;;;;;;;;;33.47;53.37;100663.50;4977614;28;65742;-41
2022/02/20 10:04:49;;;;;;;;;;;;;;;33.48;53.48;100663.22;4975936;28;70363;-42
2022/02/20 10:07:32;;;;;;;;;;;;;;;33.48;53.56;100667.84;4983831;28;66339;-41
2022/02/20 10:10:05;;;;;;;;;;;;;;;33.48;53.42;100670.56;4969151;28;69397;-41
2022/02/20 10:12:35;;;;;;;;;;;;;;;33.50;53.52;100671.16;4964054;28;66291;-40
2022/02/20 10:15:25;;;;;;;;;;;;;;;33.47;53.97;100672.47;4979600;28;70657;-41
2022/02/20 10:18:16;;;;;;;;;;;;;;;33.49;53.72;100680.38;4970184;28;65991;-41
2022/02/20 10:21:04;;;;;;;;;;;;;;;33.47;53.76;100682.53;4969318;28;70459;-42
2022/02/20 10:23:54;;;;;;;;;;;;;;;33.48;54.01;100690.44;4976216;28;65204;-41
2022/02/20 10:26:44;;;;;;;;;;;;;;;33.44;53.98;100693.88;4976377;28;70471;-42
2022/02/20 10:29:32;;;;;;;;;;;;;;;33.42;54.33;100690.59;4977554;28;66929;-41
2022/02/20 10:32:03;;;;;;;;;;;;;;;33.40;54.25;100703.59;4967822;28;69189;-41
2022/02/20 10:34:33;;;;;;;;;;;;;;;33.36;54.38;100704.06;4974023;28;66268;-40
2022/02/20 10:37:03;;;;;;;;;;;;;;;33.34;54.44;100694.50;4978146;28;70355;-41
2022/02/20 10:39:39;;;;;;;;;;;;;;;33.28;54.47;100699.00;4976945;28;66399;-42
2022/02/20 10:42:14;;;;;;;;;;;;;;;33.27;54.15;100705.53;4975018;28;70243;-40
2022/02/20 10:44:51;;;;;;;;;;;;;;;33.27;54.37;100713.69;4976441;28;66703;-41
2022/02/20 10:47:22;;;;;;;;;;;;;;;33.26;54.25;100709.28;4974244;28;70391;-41
2022/02/20 10:49:53;;;;;;;;;;;;;;;33.24;54.02;100714.16;4975175;28;66576;-42
2022/02/20 10:52:25;;;;;;;;;;;;;;;33.17;53.89;100713.47;4967996;28;70402;-42
2022/02/20 10:55:01;;;;;;;;;;;;;;;33.17;55.00;100704.50;4974501;28;66177;-41
2022/02/20 10:57:49;;;;;;;;;;;;;;;33.18;55.26;100709.66;4974722;28;69599;-41
2022/02/20 11:00:20;;;;;;;;;;;;;;;33.18;55.26;100709.66;4971886;28;65034;-40
2022/02/20 11:03:12;;;;;;;;;;;;;;;33.18;54.83;100717.00;4976116;28;69166;-41
2022/02/20 11:05:42;;;;;;;;;;;;;;;33.18;54.75;100720.53;4974601;28;66176;-41
2022/02/20 11:08:12;;;;;;;;;;;;;;;33.16;55.08;100722.69;4973167;28;69235;-42
2022/02/20 11:10:42;;;;;;;;;;;;;;;33.14;55.26;100727.53;4972804;28;66708;-40
2022/02/20 11:13:13;;;;;;;;;;;;;;;33.13;54.93;100732.16;4975860;28;70330;-40
2022/02/20 11:15:44;;;;;;;;;;;;;;;33.12;54.46;100735.09;4977772;27;66604;-41
2022/02/20 11:18:16;;;;;;;;;;;;;;;33.11;54.42;100738.88;4977826;27;70521;-41
2022/02/20 11:20:48;;;;;;;;;;;;;;;33.11;54.33;100738.88;4975078;28;67280;-40
2022/02/20 11:23:23;;;;;;;;;;;;;;;33.10;54.40;100737.25;4977940;27;69303;-42
2022/02/20 11:25:54;;;;;;;;;;;;;;;33.09;54.43;100741.00;4973434;28;65968;-41
2022/02/20 11:28:24;;;;;;;;;;;;;;;33.06;54.45;100746.94;4975290;28;69853;-41
2022/02/20 11:30:54;;;;;;;;;;;;;;;33.03;54.52;100750.13;4974614;28;66451;-42
2022/02/20 11:33:25;;;;;;;;;;;;;;;32.90;55.10;100749.28;4973552;28;70478;-40
2022/02/20 11:35:55;;;;;;;;;;;;;;;32.74;55.68;100743.75;4973751;28;65207;-43
2022/02/20 11:38:25;;;;;;;;;;;;;;;32.61;56.77;100750.22;4974835;28;68831;-41
2022/02/20 11:41:02;;;;;;;;;;;;;;;32.47;56.97;100745.00;4972767;28;65696;-42
2022/02/20 11:43:39;;;;;;;;;;;;;;;32.37;57.39;100765.63;4971346;28;69092;-43
2022/02/20 11:46:11;;;;;;;;;;;;;;;32.26;57.87;100761.81;4973544;28;65730;-41
2022/02/20 11:49:01;;;;;;;;;;;;;;;32.19;58.03;100758.41;4973900;28;69777;-42
2022/02/20 11:51:31;;;;;;;;;;;;;;;32.14;58.20;100777.25;4971371;28;66618;-40
2022/02/20 11:54:20;;;;;;;;;;;;;;;32.07;58.44;100776.50;4987474;28;70119;-42
2022/02/20 11:57:09;;;;;;;;;;;;;;;32.01;58.49;100776.41;4990786;27;66590;-41
2022/02/20 11:59:40;;;;;;;;;;;;;;;31.98;58.89;100774.16;4978494;28;70304;-41
2022/02/20 12:02:14;;;;;;;;;;;;;;;31.95;59.16;100774.59;4981277;28;66693;-41
2022/02/20 12:04:55;;;;;;;;;;;;;;;31.88;59.61;100787.41;4998848;28;70590;-42
2022/02/20 12:07:32;;;;;;;;;;;;;;;31.89;59.62;100791.75;4987909;27;66169;-41
2022/02/20 12:10:24;;;;;;;;;;;;;;;31.85;60.09;100793.28;4977198;28;69572;-42
2022/02/20 12:12:57;;;;;;;;;;;;;;;31.82;60.25;100786.44;4985862;28;66050;-42
2022/02/20 12:15:29;;;;;;;;;;;;;;;31.79;59.81;100783.34;4994371;27;69360;-42
2022/02/20 12:18:22;;;;;;;;;;;;;;;31.75;60.31;100784.84;4987466;27;66893;-43
2022/02/20 12:20:51;;;;;;;;;;;;;;;31.74;60.37;100791.34;4960711;28;70139;-42
2022/02/20 12:23:27;;;;;;;;;;;;;;;31.71;60.35;100794.53;4980164;28;66012;-41
2022/02/20 12:26:01;;;;;;;;;;;;;;;31.67;60.26;100799.53;4981966;28;70278;-44
2022/02/20 12:28:31;;;;;;;;;;;;;;;31.64;60.19;100812.75;4996793;27;66592;-43
2022/02/20 12:31:10;;;;;;;;;;;;;;;31.64;60.67;100810.03;4976441;28;69413;-41
2022/02/20 12:33:45;;;;;;;;;;;;;;;31.64;61.27;100815.44;4981598;28;65543;-41
2022/02/20 12:36:25;;;;;;;;;;;;;;;31.64;60.74;100810.03;4980046;28;70566;-43
2022/02/20 12:38:57;;;;;;;;;;;;;;;31.62;60.46;100802.09;4976728;28;65795;-43
2022/02/20 12:41:27;;;;;;;;;;;;;;;31.58;60.95;100807.16;4975218;28;70236;-43
2022/02/20 12:43:59;;;;;;;;;;;;;;;31.55;60.27;100810.34;4979701;28;66124;-43
2022/02/20 12:46:31;;;;;;;;;;;;;;;31.54;60.79;100816.81;4979079;28;69505;-43
2022/02/20 12:49:04;;;;;;;;;;;;;;;31.54;60.59;100829.56;4978503;28;65314;-44
2022/02/20 12:51:39;;;;;;;;;;;;;;;31.52;60.24;100829.75;4972706;28;68687;-42
2022/02/20 12:54:11;;;;;;;;;;;;;;;31.51;60.76;100825.41;4967012;28;67151;-41
2022/02/20 12:57:04;;;;;;;;;;;;;;;31.44;60.77;100832.78;4975250;28;69696;-41
2022/02/20 12:59:55;;;;;;;;;;;;;;;31.44;61.44;100838.19;4960398;28;66242;-42
2022/02/20 13:02:52;;;;;;;;;;;;;;;31.47;61.96;100854.00;4975018;28;69752;-43
2022/02/20 13:05:40;;;;;;;;;;;;;;;31.46;61.22;100854.25;4968548;28;65294;-43
2022/02/20 13:08:19;;;;;;;;;;;;;;;31.45;61.24;100872.38;4981648;28;69266;-43
2022/02/20 13:10:54;;;;;;;;;;;;;;;31.45;61.79;100883.22;4984274;27;66642;-44
2022/02/20 13:13:58;;;;;;;;;;;;;;;31.43;61.42;100888.06;4974615;28;69808;-43